createdAt,value
2023-01-17T00:01:52.148Z,97493.16
2023-01-17T00:05:14.122Z,97491.63
2023-01-17T00:08:55.250Z,97490.12
2023-01-17T00:11:59.365Z,97480.50
2023-01-17T00:15:02.581Z,97485.16
2023-01-17T00:18:06.088Z,97490.47
2023-01-17T00:21:27.670Z,97484.31
2023-01-17T00:24:50.494Z,97493.16
2023-01-17T00:27:53.352Z,97498.12
2023-01-17T00:30:56.625Z,97483.56
2023-01-17T00:33:59.635Z,97488.91
2023-01-17T00:37:02.794Z,97490.78
2023-01-17T00:40:06.460Z,97480.44
2023-01-17T00:43:29.781Z,97493.44
2023-01-17T00:46:51.430Z,97493.09
2023-01-17T00:50:13.358Z,97508.00
2023-01-17T00:53:35.358Z,97498.81
2023-01-17T00:56:57.246Z,97490.81
2023-01-17T01:00:18.654Z,97499.97
2023-01-17T01:03:41.064Z,97497.66
2023-01-17T01:07:02.687Z,97478.44
2023-01-17T01:10:25.238Z,97482.28
2023-01-17T01:13:48.487Z,97482.31
2023-01-17T01:17:10.451Z,97488.03
2023-01-17T01:20:33.060Z,97496.06
2023-01-17T01:23:55.067Z,97488.78
2023-01-17T01:27:16.929Z,97494.19
2023-01-17T01:30:39.131Z,97493.41
2023-01-17T01:33:43.517Z,97489.94
2023-01-17T01:36:46.744Z,97489.16
2023-01-17T01:39:50.176Z,97494.94
2023-01-17T01:42:55.389Z,97501.47
2023-01-17T01:45:59.216Z,97499.97
2023-01-17T01:49:29.745Z,97495.34
2023-01-17T01:52:34.840Z,97494.19
2023-01-17T01:55:39.069Z,97494.19
2023-01-17T01:58:45.508Z,97481.91
2023-01-17T02:01:50.754Z,97491.16
2023-01-17T02:04:54.011Z,97488.47
2023-01-17T02:08:02.392Z,97483.09
2023-01-17T02:11:05.988Z,97480.44
2023-01-17T02:14:14.259Z,97481.97
2023-01-17T02:18:14.976Z,97480.44
2023-01-17T02:21:26.657Z,97473.16
2023-01-17T02:24:52.291Z,97473.94
2023-01-17T02:28:23.377Z,97473.13
2023-01-17T02:31:32.792Z,97456.28
2023-01-17T02:34:46.710Z,97449.78
2023-01-17T02:38:05.268Z,97444.06
2023-01-17T02:41:21.850Z,97436.72
2023-01-17T02:44:25.072Z,97424.00
2023-01-17T02:47:30.363Z,97425.16
2023-01-17T02:50:59.792Z,97437.41
2023-01-17T02:54:05.705Z,97427.38
2023-01-17T02:57:23.850Z,97430.53
2023-01-17T03:00:35.941Z,97427.03
2023-01-17T03:03:57.998Z,97413.59
2023-01-17T03:07:04.590Z,97422.50
2023-01-17T03:10:10.234Z,97413.25
2023-01-17T03:13:14.571Z,97412.44
2023-01-17T03:16:21.339Z,97418.75
2023-01-17T03:19:25.545Z,97414.53
2023-01-17T03:22:28.756Z,97413.78
2023-01-17T03:25:32.601Z,97402.22
2023-01-17T03:28:35.841Z,97396.88
2023-01-17T03:31:38.701Z,97391.84
2023-01-17T03:34:42.129Z,97384.16
2023-01-17T03:37:45.126Z,97373.78
2023-01-17T03:40:48.322Z,97378.37
2023-01-17T03:43:51.317Z,97358.78
2023-01-17T03:46:54.484Z,97361.81
2023-01-17T03:49:57.527Z,97358.38
2023-01-17T03:53:00.889Z,97346.13
2023-01-17T03:56:03.835Z,97333.44
2023-01-17T03:59:08.113Z,97337.97
2023-01-17T04:02:11.172Z,97341.44
2023-01-17T04:05:15.130Z,97337.19
2023-01-17T04:08:18.098Z,97335.69
2023-01-17T04:11:21.634Z,97335.63
2023-01-17T04:14:24.511Z,97331.75
2023-01-17T04:17:27.832Z,97338.25
2023-01-17T04:20:36.332Z,97330.66
2023-01-17T04:23:39.634Z,97335.22
2023-01-17T04:26:42.589Z,97324.91
2023-01-17T04:29:46.845Z,97334.88
2023-01-17T04:32:50.353Z,97326.84
2023-01-17T04:35:54.483Z,97324.88
2023-01-17T04:38:57.226Z,97321.47
2023-01-17T04:42:00.450Z,97324.59
2023-01-17T04:45:04.031Z,97322.56
2023-01-17T04:48:07.984Z,97328.31
2023-01-17T04:51:10.863Z,97324.91
2023-01-17T04:54:14.324Z,97327.16
2023-01-17T04:57:18.295Z,97332.56
2023-01-17T05:00:24.048Z,97337.12
2023-01-17T05:03:27.161Z,97328.31
2023-01-17T05:06:30.472Z,97342.09
2023-01-17T05:09:33.462Z,97341.37
2023-01-17T05:12:36.685Z,97346.75
2023-01-17T05:15:39.723Z,97348.66
2023-01-17T05:18:42.991Z,97335.28
2023-01-17T05:21:45.910Z,97329.91
2023-01-17T05:24:49.244Z,97326.84
2023-01-17T05:27:52.619Z,97333.00
2023-01-17T05:30:55.881Z,97335.69
2023-01-17T05:34:00.178Z,97334.97
2023-01-17T05:37:03.429Z,97339.94
2023-01-17T05:40:09.770Z,97343.44
2023-01-17T05:43:13.479Z,97342.28
2023-01-17T05:46:18.145Z,97350.72
2023-01-17T05:49:21.432Z,97350.38
2023-01-17T05:52:24.403Z,97354.19
2023-01-17T05:55:28.950Z,97361.06
2023-01-17T05:58:31.942Z,97377.91
2023-01-17T06:01:35.125Z,97382.91
2023-01-17T06:04:38.363Z,97387.94
2023-01-17T06:07:44.305Z,97386.37
2023-01-17T06:10:47.505Z,97389.13
2023-01-17T06:13:50.476Z,97397.97
2023-01-17T06:16:53.839Z,97408.28
2023-01-17T06:19:56.739Z,97427.59
2023-01-17T06:23:04.570Z,97431.53
2023-01-17T06:26:09.179Z,97450.34
2023-01-17T06:29:12.620Z,97446.53
2023-01-17T06:32:16.905Z,97469.87
2023-01-17T06:35:20.085Z,97469.09
2023-01-17T06:38:23.547Z,97468.34
2023-01-17T06:41:26.822Z,97487.47
2023-01-17T06:44:29.846Z,97479.44
2023-01-17T06:47:33.042Z,97488.22
2023-01-17T06:50:36.071Z,97497.81
2023-01-17T06:53:40.359Z,97507.69
2023-01-17T06:56:43.583Z,97520.31
2023-01-17T06:59:47.590Z,97520.69
2023-01-17T07:02:51.052Z,97538.25
2023-01-17T07:05:54.779Z,97543.16
2023-01-17T07:08:57.733Z,97546.16
2023-01-17T07:12:02.253Z,97557.97
2023-01-17T07:15:06.442Z,97561.06
2023-01-17T07:18:10.438Z,97564.06
2023-01-17T07:21:15.622Z,97562.44
2023-01-17T07:24:19.569Z,97572.34
2023-01-17T07:27:22.661Z,97588.34
2023-01-17T07:30:27.087Z,97592.84
2023-01-17T07:33:30.020Z,97593.28
2023-01-17T07:36:33.626Z,97607.25
2023-01-17T07:39:37.524Z,97613.28
2023-01-17T07:42:40.737Z,97621.25
2023-01-17T07:45:45.737Z,97624.38
2023-01-17T07:48:48.990Z,97632.31
2023-01-17T07:51:51.909Z,97644.09
2023-01-17T07:54:55.252Z,97642.91
2023-01-17T07:57:58.179Z,97638.91
2023-01-17T08:01:10.292Z,97635.56
2023-01-17T08:04:14.724Z,97642.25
2023-01-17T08:07:17.752Z,97632.28
2023-01-17T08:10:21.471Z,97640.56
2023-01-17T08:13:24.537Z,97649.12
2023-01-17T08:16:28.911Z,97646.91
2023-01-17T08:19:31.939Z,97656.56
2023-01-17T08:22:35.215Z,97655.28
2023-01-17T08:25:39.306Z,97661.19
2023-01-17T08:28:42.645Z,97652.06
2023-01-17T08:31:45.849Z,97655.44
2023-01-17T08:34:49.242Z,97644.09
2023-01-17T08:37:54.876Z,97644.72
2023-01-17T08:41:01.484Z,97624.06
2023-01-17T08:44:04.708Z,97614.00
2023-01-17T08:47:08.056Z,97616.13
2023-01-17T08:50:11.352Z,97614.25
2023-01-17T08:53:16.396Z,97632.25
2023-01-17T08:56:20.106Z,97632.56
2023-01-17T08:59:23.531Z,97648.63
2023-01-17T09:02:26.519Z,97663.06
2023-01-17T09:05:29.828Z,97672.78
2023-01-17T09:08:33.440Z,97673.09
2023-01-17T09:11:37.084Z,97683.81
2023-01-17T09:14:40.171Z,97693.41
2023-01-17T09:17:43.815Z,97697.22
2023-01-17T09:20:46.863Z,97696.91
2023-01-17T09:23:50.149Z,97704.56
2023-01-17T09:26:53.049Z,97690.87
2023-01-17T09:29:56.279Z,97705.16
2023-01-17T09:32:59.455Z,97718.88
2023-01-17T09:36:04.510Z,97735.72
2023-01-17T09:39:08.331Z,97749.25
2023-01-17T09:42:39.566Z,97754.97
2023-01-17T09:45:42.533Z,97759.16
2023-01-17T09:48:46.008Z,97760.44
2023-01-17T09:51:50.060Z,97770.44
2023-01-17T09:54:53.522Z,97775.13
2023-01-17T09:58:07.117Z,97780.56
2023-01-17T10:01:34.498Z,97794.84
2023-01-17T10:05:14.758Z,97786.34
2023-01-17T10:08:32.844Z,97781.78
2023-01-17T10:12:06.608Z,97791.88
2023-01-17T10:15:15.495Z,97782.34
2023-01-17T10:18:47.991Z,97774.69
2023-01-17T10:21:59.305Z,97777.03
2023-01-17T10:25:24.645Z,97784.69
2023-01-17T10:28:53.260Z,97793.16
2023-01-17T10:32:00.109Z,97795.12
2023-01-17T10:35:15.847Z,97805.44
2023-01-17T10:38:19.872Z,97795.09
2023-01-17T10:41:29.264Z,97786.25
2023-01-17T10:44:43.981Z,97776.25
2023-01-17T10:47:54.173Z,97755.56
2023-01-17T10:51:03.627Z,97750.19
2023-01-17T10:54:09.477Z,97744.81
2023-01-17T10:57:15.653Z,97740.19
2023-01-17T11:00:44.398Z,97722.50
2023-01-17T11:03:54.638Z,97707.44
2023-01-17T11:07:18.871Z,97705.81
2023-01-17T11:10:40.352Z,97705.91
2023-01-17T11:13:48.608Z,97713.97
2023-01-17T11:17:02.742Z,97703.09
2023-01-17T11:20:15.770Z,97696.28
2023-01-17T11:23:30.519Z,97691.03
2023-01-17T11:26:34.912Z,97680.22
2023-01-17T11:29:39.655Z,97681.75
2023-01-17T11:33:00.125Z,97685.25
2023-01-17T11:36:03.395Z,97680.72
2023-01-17T11:39:22.930Z,97669.56
2023-01-17T11:42:34.854Z,97662.19
2023-01-17T11:45:41.493Z,97659.50
2023-01-17T11:48:54.967Z,97655.00
2023-01-17T11:51:58.946Z,97653.59
2023-01-17T11:55:02.240Z,97659.56
2023-01-17T11:58:05.433Z,97658.09
2023-01-17T12:01:27.319Z,97666.84
2023-01-17T12:05:06.060Z,97655.50
2023-01-17T12:08:28.374Z,97638.87
2023-01-17T12:12:00.659Z,97652.53
2023-01-17T12:15:37.757Z,97660.37
2023-01-17T12:18:49.931Z,97680.53
2023-01-17T12:22:05.355Z,97677.25
2023-01-17T12:25:29.328Z,97680.44
2023-01-17T12:28:50.862Z,97674.09
2023-01-17T12:31:54.034Z,97674.81
2023-01-17T12:35:02.231Z,97681.69
2023-01-17T12:38:31.841Z,97679.22
2023-01-17T12:41:53.201Z,97678.94
2023-01-17T12:45:10.482Z,97671.00
2023-01-17T12:48:19.125Z,97677.81
2023-01-17T12:51:29.160Z,97678.91
2023-01-17T12:54:38.413Z,97676.84
2023-01-17T12:57:45.837Z,97667.56
2023-01-17T13:00:55.047Z,97666.44
2023-01-17T13:04:32.195Z,97685.88
2023-01-17T13:07:50.595Z,97683.19
2023-01-17T13:11:02.205Z,97680.28
2023-01-17T13:14:08.814Z,97675.72
2023-01-17T13:17:26.837Z,97668.91
2023-01-17T13:21:08.409Z,97658.53
2023-01-17T13:24:22.908Z,97651.09
2023-01-17T13:28:06.885Z,97659.94
2023-01-17T13:31:32.514Z,97655.09
2023-01-17T13:34:49.455Z,97671.41
2023-01-17T13:37:56.184Z,97675.94
2023-01-17T13:41:05.021Z,97670.59
2023-01-17T13:44:23.158Z,97675.16
2023-01-17T13:47:26.225Z,97680.84
2023-01-17T13:50:39.217Z,97686.94
2023-01-17T13:53:42.648Z,97689.53
2023-01-17T13:56:45.993Z,97689.78
2023-01-17T13:59:50.939Z,97678.53
2023-01-17T14:02:55.588Z,97667.34
2023-01-17T14:05:58.905Z,97658.53
2023-01-17T14:09:20.938Z,97644.38
2023-01-17T14:12:26.460Z,97634.78
2023-01-17T14:15:30.048Z,97620.72
2023-01-17T14:18:34.348Z,97616.25
2023-01-17T14:21:37.287Z,97597.09
2023-01-17T14:25:01.236Z,97585.63
2023-01-17T14:28:08.434Z,97579.09
2023-01-17T14:31:11.881Z,97555.69
2023-01-17T14:34:23.927Z,97549.59
2023-01-17T14:37:33.094Z,97541.59
2023-01-17T14:40:38.510Z,97538.91
2023-01-17T14:43:43.635Z,97529.31
2023-01-17T14:46:48.658Z,97528.19
2023-01-17T14:50:09.229Z,97505.09
2023-01-17T14:53:12.127Z,97505.91
2023-01-17T14:56:17.263Z,97496.31
2023-01-17T14:59:22.185Z,97512.19
2023-01-17T15:02:25.561Z,97503.63
2023-01-17T15:05:30.359Z,97494.00
2023-01-17T15:08:35.516Z,97491.66
2023-01-17T15:11:39.106Z,97491.28
2023-01-17T15:14:45.551Z,97482.81
2023-01-17T15:17:48.532Z,97497.12
2023-01-17T15:21:03.358Z,97484.44
2023-01-17T15:24:08.461Z,97484.03
2023-01-17T15:27:14.709Z,97474.38
2023-01-17T15:30:18.419Z,97471.00
2023-01-17T15:33:21.708Z,97468.69
2023-01-17T15:36:30.191Z,97465.56
2023-01-17T15:39:40.053Z,97479.06
2023-01-17T15:42:44.124Z,97471.37
2023-01-17T15:45:57.417Z,97466.38
2023-01-17T15:49:39.014Z,97465.25
2023-01-17T15:52:50.073Z,97468.22
2023-01-17T15:55:53.014Z,97456.34
2023-01-17T15:59:34.680Z,97451.75
2023-01-17T16:02:42.967Z,97456.34
2023-01-17T16:05:47.634Z,97464.41
2023-01-17T16:08:54.659Z,97463.66
2023-01-17T16:11:58.035Z,97474.12
2023-01-17T16:15:11.703Z,97467.91
2023-01-17T16:18:23.107Z,97465.88
2023-01-17T16:21:31.165Z,97469.78
2023-01-17T16:24:34.479Z,97461.38
2023-01-17T16:27:37.865Z,97470.97
2023-01-17T16:30:41.538Z,97462.59
2023-01-17T16:33:46.176Z,97459.81
2023-01-17T16:36:54.400Z,97457.50
2023-01-17T16:39:57.446Z,97453.34
2023-01-17T16:43:01.148Z,97452.91
2023-01-17T16:46:04.326Z,97454.13
2023-01-17T16:49:07.574Z,97451.09
2023-01-17T16:52:10.515Z,97441.09
2023-01-17T16:55:15.798Z,97435.34
2023-01-17T16:58:20.495Z,97424.16
2023-01-17T17:01:25.617Z,97425.37
2023-01-17T17:04:28.891Z,97441.59
2023-01-17T17:07:35.100Z,97440.81
2023-01-17T17:10:38.893Z,97457.44
2023-01-17T17:13:44.508Z,97445.94
2023-01-17T17:16:51.879Z,97453.66
2023-01-17T17:19:55.821Z,97449.06
2023-01-17T17:22:59.098Z,97444.81
2023-01-17T17:26:02.557Z,97436.78
2023-01-17T17:29:11.754Z,97434.94
2023-01-17T17:32:15.729Z,97436.06
2023-01-17T17:35:19.143Z,97432.31
2023-01-17T17:38:23.271Z,97440.03
2023-01-17T17:41:28.394Z,97439.22
2023-01-17T17:44:32.561Z,97445.34
2023-01-17T17:47:35.875Z,97442.69
2023-01-17T17:50:39.727Z,97433.81
2023-01-17T17:53:42.899Z,97434.31
2023-01-17T17:56:47.498Z,97435.03
2023-01-17T17:59:51.085Z,97431.22
2023-01-17T18:02:54.397Z,97435.81
2023-01-17T18:06:05.749Z,97422.38
2023-01-17T18:09:10.996Z,97412.38
2023-01-17T18:12:17.369Z,97409.37
2023-01-17T18:15:21.738Z,97392.09
2023-01-17T18:18:25.781Z,97380.66
2023-01-17T18:21:34.550Z,97372.97
2023-01-17T18:24:38.011Z,97366.84
2023-01-17T18:27:45.617Z,97339.25
2023-01-17T18:30:49.901Z,97334.63
2023-01-17T18:33:55.334Z,97323.50
2023-01-17T18:36:59.284Z,97307.41
2023-01-17T18:40:03.808Z,97294.75
2023-01-17T18:43:09.683Z,97281.75
2023-01-17T18:46:13.722Z,97272.91
2023-01-17T18:49:19.727Z,97267.94
2023-01-17T18:52:25.276Z,97264.13
2023-01-17T18:55:28.950Z,97262.59
2023-01-17T18:58:40.237Z,97258.84
2023-01-17T19:01:44.860Z,97248.09
2023-01-17T19:04:53.714Z,97251.94
2023-01-17T19:07:58.042Z,97247.69
2023-01-17T19:11:04.831Z,97238.25
2023-01-17T19:14:10.685Z,97240.88
2023-01-17T19:17:14.873Z,97245.47
2023-01-17T19:20:19.578Z,97230.59
2023-01-17T19:23:23.825Z,97233.25
2023-01-17T19:26:28.657Z,97226.41
2023-01-17T19:29:33.251Z,97220.69
2023-01-17T19:32:37.426Z,97215.41
2023-01-17T19:35:41.261Z,97205.47
2023-01-17T19:39:03.016Z,97201.34
2023-01-17T19:42:11.083Z,97201.03
2023-01-17T19:45:17.511Z,97187.63
2023-01-17T19:48:23.055Z,97171.56
2023-01-17T19:51:31.073Z,97168.19
2023-01-17T19:54:37.111Z,97155.22
2023-01-17T19:57:42.856Z,97147.59
2023-01-17T20:00:48.852Z,97139.19
2023-01-17T20:03:57.905Z,97122.03
2023-01-17T20:07:03.013Z,97130.06
2023-01-17T20:10:09.770Z,97120.16
2023-01-17T20:13:14.317Z,97115.19
2023-01-17T20:16:18.691Z,97107.53
2023-01-17T20:19:24.465Z,97100.28
2023-01-17T20:22:28.702Z,97098.78
2023-01-17T20:25:34.482Z,97096.47
2023-01-17T20:28:40.812Z,97088.81
2023-01-17T20:31:45.963Z,97078.12
2023-01-17T20:34:54.588Z,97073.16
2023-01-17T20:37:58.654Z,97071.66
2023-01-17T20:41:02.468Z,97065.53
2023-01-17T20:44:09.582Z,97062.84
2023-01-17T20:47:13.395Z,97049.50
2023-01-17T20:50:18.098Z,97046.03
2023-01-17T20:53:26.341Z,97032.31
2023-01-17T20:56:34.848Z,97036.91
2023-01-17T20:59:38.511Z,97036.91
2023-01-17T21:02:42.018Z,97036.16
2023-01-17T21:05:46.763Z,97020.84
2023-01-17T21:08:52.196Z,97027.34
2023-01-17T21:12:01.384Z,97020.09
2023-01-17T21:15:05.211Z,97022.78
2023-01-17T21:18:10.339Z,97014.75
2023-01-17T21:21:18.260Z,97007.50
2023-01-17T21:24:21.801Z,97002.53
2023-01-17T21:27:25.901Z,96986.47
2023-01-17T21:30:29.287Z,96973.88
2023-01-17T21:33:32.669Z,96957.81
2023-01-17T21:36:38.504Z,96935.69
2023-01-17T21:39:41.478Z,96916.16
2023-01-17T21:42:45.149Z,96905.84
2023-01-17T21:45:48.185Z,96884.81
2023-01-17T21:48:51.433Z,96871.47
2023-01-17T21:51:54.402Z,96850.44
2023-01-17T21:55:16.118Z,96863.47
2023-01-17T21:58:37.892Z,96837.84
2023-01-17T22:01:41.229Z,96866.91
2023-01-17T22:04:44.529Z,96868.81
2023-01-17T22:08:06.298Z,96862.34
2023-01-17T22:11:18.606Z,96845.84
2023-01-17T22:14:21.534Z,96843.97
2023-01-17T22:17:24.790Z,96842.41
2023-01-17T22:20:28.010Z,96836.28
2023-01-17T22:23:31.267Z,96830.59
2023-01-17T22:26:35.139Z,96818.72
2023-01-17T22:29:38.481Z,96806.87
2023-01-17T22:32:41.665Z,96811.47
2023-01-17T22:35:44.845Z,96816.47
2023-01-17T22:38:48.232Z,96821.03
2023-01-17T22:41:51.597Z,96832.84
2023-01-17T22:44:54.471Z,96835.91
2023-01-17T22:47:57.719Z,96833.97
2023-01-17T22:51:02.429Z,96830.53
2023-01-17T22:54:05.754Z,96842.00
2023-01-17T22:57:09.191Z,96842.34
2023-01-17T23:00:17.200Z,96851.94
2023-01-17T23:03:20.552Z,96874.47
2023-01-17T23:06:32.429Z,96894.28
2023-01-17T23:09:35.335Z,96896.50
2023-01-17T23:12:38.758Z,96879.72
2023-01-17T23:16:01.068Z,96876.22
2023-01-17T23:19:22.299Z,96878.22
2023-01-17T23:22:27.883Z,96883.81
2023-01-17T23:25:31.291Z,96882.19
2023-01-17T23:28:34.351Z,96867.69
2023-01-17T23:31:37.774Z,96842.47
2023-01-17T23:34:41.368Z,96847.00
2023-01-17T23:38:03.197Z,96841.59
2023-01-17T23:41:26.817Z,96835.00
2023-01-17T23:44:32.156Z,96844.56
2023-01-17T23:47:36.286Z,96855.63
2023-01-17T23:50:42.605Z,96868.59
2023-01-17T23:53:45.516Z,96880.91
2023-01-17T23:56:48.762Z,96905.81
2023-01-17T23:59:51.738Z,96901.19
